Rysy — C6ZA3 — position and weather

sailwx.info

Track history (hours):
 
Tides and Currents Weather Stations Pressure Air Temp Water Temp Dewpoint Dewpoint Depression Visibility Wind Speed Wind Dir Waves Ship Positions

Rysy

Last reported at 2015-Aug-28 14:33 UTC. Time now 2015-Aug-31 04:45 UTC.
Position N 03°39' E 100°13'.

Length 229 m; draft 14.8 m.

Type: Cargo ship. MMSI: 311051200.

Date/timePositionNaut miles runAvg speedWind from/ knotsBaromVisibWave heightAir tempDewpointWater temp
2015-Aug-28 14:33N 03°39' E 100°13'4013.1
2015-Aug-28 11:32N 03°11' E 100°40'3411.3
2015-Aug-28 08:33N 02°48' E 101°05'2311.3
2015-Aug-28 06:33N 02°38' E 101°25'15911.9
2015-Aug-27 17:11N 01°11' E 103°38'8 9.6
2015-Aug-27 16:24N 01°09' E 103°45'7 7.9
2015-Aug-27 15:33N 01°12' E 103°51'1010.0
2015-Aug-27 14:33N 01°16' E 104°00'3 3.4
2015-Aug-27 13:33N 01°18' E 104°03'0 0.1
2015-Aug-27 12:27N 01°18' E 104°03'0 0.0
2015-Aug-27 08:27N 01°18' E 104°03'0 0.0
2015-Aug-27 07:33N 01°18' E 104°03'0 0.0
2015-Aug-27 06:33N 01°18' E 104°03'0 0.0
2015-Aug-27 05:15N 01°18' E 104°03'0 0.0
2015-Aug-27 04:15N 01°18' E 104°03'0 0.0
2015-Aug-27 03:12N 01°18' E 104°03'0 0.0
2015-Aug-27 02:27N 01°18' E 104°03'0 0.0
2015-Aug-27 01:18N 01°18' E 104°03'0 0.1
2015-Aug-27 00:33N 01°18' E 104°03'0 0.0
2015-Aug-26 23:33N 01°18' E 104°03'0 0.4
2015-Aug-26 22:32N 01°18' E 104°03'3 2.6
2015-Aug-26 21:29N 01°18' E 104°06'  
Track history (hours):
 
Tides and Currents Weather Stations Pressure Air Temp Water Temp Dewpoint Dewpoint Depression Visibility Wind Speed Wind Dir Waves Ship Positions

Rysy

Last reported at 2015-Aug-28 14:33 UTC. Time now 2015-Aug-31 04:45 UTC.
Position N 03°39' E 100°13'.

Length 229 m; draft 14.8 m.

Type: Cargo ship. MMSI: 311051200.

Date/timePositionNaut miles runAvg speedWind from/ knotsBaromVisibWave heightAir tempDewpointWater temp
2015-Aug-28 14:33N 03°39' E 100°13'4013.1
2015-Aug-28 11:32N 03°11' E 100°40'3411.3
2015-Aug-28 08:33N 02°48' E 101°05'2311.3
2015-Aug-28 06:33N 02°38' E 101°25'15911.9
2015-Aug-27 17:11N 01°11' E 103°38'8 9.6
2015-Aug-27 16:24N 01°09' E 103°45'7 7.9
2015-Aug-27 15:33N 01°12' E 103°51'1010.0
2015-Aug-27 14:33N 01°16' E 104°00'3 3.4
2015-Aug-27 13:33N 01°18' E 104°03'0 0.1
2015-Aug-27 12:27N 01°18' E 104°03'0 0.0
2015-Aug-27 08:27N 01°18' E 104°03'0 0.0
2015-Aug-27 07:33N 01°18' E 104°03'0 0.0
2015-Aug-27 06:33N 01°18' E 104°03'0 0.0
2015-Aug-27 05:15N 01°18' E 104°03'0 0.0
2015-Aug-27 04:15N 01°18' E 104°03'0 0.0
2015-Aug-27 03:12N 01°18' E 104°03'0 0.0
2015-Aug-27 02:27N 01°18' E 104°03'0 0.0
2015-Aug-27 01:18N 01°18' E 104°03'0 0.1
2015-Aug-27 00:33N 01°18' E 104°03'0 0.0
2015-Aug-26 23:33N 01°18' E 104°03'0 0.4
2015-Aug-26 22:32N 01°18' E 104°03'3 2.6
2015-Aug-26 21:29N 01°18' E 104°06'  

Dump ship's entire track history